createdAt,value
2019-01-06T00:00:25.653Z,1.07
2019-01-06T00:01:19.789Z,1.00
2019-01-06T00:02:10.249Z,0.90
2019-01-06T00:03:08.809Z,0.80
2019-01-06T00:04:03.966Z,1.00
2019-01-06T00:05:00.163Z,1.32
2019-01-06T00:06:02.331Z,1.15
2019-01-06T00:07:10.611Z,1.00
2019-01-06T00:08:06.949Z,1.20
2019-01-06T00:09:02.559Z,2.20
2019-01-06T00:10:11.898Z,1.15
2019-01-06T00:11:02.260Z,1.40
2019-01-06T00:11:59.113Z,1.40
2019-01-06T00:12:54.157Z,1.62
2019-01-06T00:13:43.263Z,1.30
2019-01-06T00:14:39.777Z,1.55
2019-01-06T00:15:35.467Z,1.10
2019-01-06T00:16:32.213Z,1.70
2019-01-06T00:17:28.408Z,1.40
2019-01-06T00:18:35.189Z,1.47
2019-01-06T00:19:29.897Z,1.17
2019-01-06T00:20:21.737Z,1.00
2019-01-06T00:21:16.673Z,1.10
2019-01-06T00:22:11.367Z,1.10
2019-01-06T00:23:21.094Z,1.10
2019-01-06T00:24:17.917Z,1.25
2019-01-06T00:25:32.781Z,1.25
2019-01-06T00:26:24.493Z,1.20
2019-01-06T00:27:22.033Z,1.10
2019-01-06T00:28:21.157Z,1.15
2019-01-06T00:29:14.988Z,1.20
2019-01-06T00:30:22.699Z,1.10
2019-01-06T00:31:25.539Z,1.40
2019-01-06T00:32:29.341Z,1.40
2019-01-06T00:33:20.947Z,1.02
2019-01-06T00:34:15.022Z,1.47
2019-01-06T00:35:16.721Z,1.00
2019-01-06T00:36:26.696Z,0.82
2019-01-06T00:37:20.267Z,1.20
2019-01-06T00:38:15.364Z,1.15
2019-01-06T00:39:20.177Z,1.10
2019-01-06T00:40:14.948Z,1.30
2019-01-06T00:41:18.967Z,1.20
2019-01-06T00:42:13.541Z,1.55
2019-01-06T00:43:14.157Z,1.30
2019-01-06T00:44:08.811Z,0.93
2019-01-06T00:45:06.067Z,1.20
2019-01-06T00:46:01.383Z,1.30
2019-01-06T00:47:09.357Z,1.27
2019-01-06T00:48:07.677Z,1.10
2019-01-06T00:49:02.322Z,1.20
2019-01-06T00:49:54.045Z,0.90
2019-01-06T00:50:55.889Z,1.40
2019-01-06T00:51:51.077Z,1.02
2019-01-06T00:52:59.487Z,0.93
2019-01-06T00:54:09.665Z,1.00
2019-01-06T00:55:44.279Z,1.00
2019-01-06T00:56:51.421Z,1.10
2019-01-06T00:57:48.253Z,0.90
2019-01-06T00:58:56.365Z,0.95
2019-01-06T01:00:04.960Z,1.32
2019-01-06T01:01:13.166Z,0.80
2019-01-06T01:02:12.349Z,1.02
2019-01-06T01:03:17.475Z,0.78
2019-01-06T01:04:12.886Z,0.72
2019-01-06T01:05:21.377Z,0.90
2019-01-06T01:06:16.471Z,0.80
2019-01-06T01:07:12.043Z,0.80
2019-01-06T01:08:05.426Z,0.90
2019-01-06T01:09:14.242Z,1.25
2019-01-06T01:10:09.738Z,1.02
2019-01-06T01:11:04.935Z,1.00
2019-01-06T01:11:59.818Z,1.10
2019-01-06T01:12:56.323Z,1.22
2019-01-06T01:13:45.492Z,1.17
2019-01-06T01:14:44.472Z,1.10
2019-01-06T01:15:55.449Z,1.00
2019-01-06T01:17:08.863Z,1.25
2019-01-06T01:18:07.695Z,1.07
2019-01-06T01:18:54.847Z,0.93
2019-01-06T01:19:56.696Z,1.10
2019-01-06T01:20:45.230Z,1.00
2019-01-06T01:21:32.744Z,0.88
2019-01-06T01:22:28.862Z,0.93
2019-01-06T01:23:24.463Z,1.05
2019-01-06T01:24:26.931Z,1.12
2019-01-06T01:25:24.785Z,0.90
2019-01-06T01:26:39.538Z,0.78
2019-01-06T01:27:51.218Z,1.30
2019-01-06T01:29:03.203Z,1.10
2019-01-06T01:29:56.769Z,0.70
2019-01-06T01:30:54.745Z,0.95
2019-01-06T01:31:50.024Z,0.80
2019-01-06T01:32:52.588Z,1.00
2019-01-06T01:34:01.212Z,0.80
2019-01-06T01:35:08.585Z,1.17
2019-01-06T01:36:12.271Z,0.98
2019-01-06T01:37:02.635Z,1.30
2019-01-06T01:38:07.976Z,0.80
2019-01-06T01:39:03.489Z,0.90
2019-01-06T01:40:03.085Z,1.10
2019-01-06T01:40:50.284Z,1.02
2019-01-06T01:42:48.007Z,1.22
2019-01-06T01:43:37.505Z,0.70
2019-01-06T01:44:50.004Z,1.00
2019-01-06T01:45:48.675Z,1.20
2019-01-06T01:46:43.984Z,0.90
2019-01-06T01:47:34.954Z,0.93
2019-01-06T01:48:29.660Z,0.80
2019-01-06T01:49:28.324Z,0.90
2019-01-06T01:50:32.645Z,0.95
2019-01-06T01:51:32.854Z,0.80
2019-01-06T01:52:41.068Z,1.10
2019-01-06T01:53:38.915Z,1.00
2019-01-06T01:54:35.375Z,0.80
2019-01-06T01:55:38.000Z,1.10
2019-01-06T01:56:35.030Z,0.85
2019-01-06T01:57:30.536Z,1.00
2019-01-06T01:58:30.244Z,0.80
2019-01-06T01:59:21.440Z,0.82
2019-01-06T02:00:17.586Z,0.70
2019-01-06T02:01:05.070Z,0.90
2019-01-06T02:02:01.899Z,1.02
2019-01-06T02:02:50.533Z,0.82
2019-01-06T02:03:45.113Z,1.20
2019-01-06T02:04:38.794Z,1.00
2019-01-06T02:05:43.698Z,1.00
2019-01-06T02:06:38.993Z,0.78
2019-01-06T02:07:41.372Z,0.95
2019-01-06T02:08:46.891Z,0.80
2019-01-06T02:09:43.277Z,1.02
2019-01-06T02:10:45.268Z,0.90
2019-01-06T02:11:40.573Z,1.00
2019-01-06T02:12:36.060Z,0.80
2019-01-06T02:13:32.600Z,1.17
2019-01-06T02:14:35.459Z,0.80
2019-01-06T02:15:20.825Z,0.70
2019-01-06T02:16:20.112Z,1.15
2019-01-06T02:17:16.850Z,1.15
2019-01-06T02:18:12.000Z,1.27
2019-01-06T02:19:03.437Z,0.95
2019-01-06T02:20:05.912Z,0.90
2019-01-06T02:21:12.158Z,0.90
2019-01-06T02:22:08.336Z,0.95
2019-01-06T02:23:07.160Z,0.88
2019-01-06T02:24:18.638Z,1.10
2019-01-06T02:25:13.416Z,0.88
2019-01-06T02:26:18.440Z,0.80
2019-01-06T02:27:21.828Z,1.40
2019-01-06T02:28:17.632Z,1.00
2019-01-06T02:29:14.976Z,0.90
2019-01-06T02:30:26.665Z,1.00
2019-01-06T02:31:17.576Z,0.70
2019-01-06T02:32:16.437Z,0.95
2019-01-06T02:33:23.721Z,0.80
2019-01-06T02:34:26.376Z,1.05
2019-01-06T02:35:31.816Z,0.90
2019-01-06T02:36:30.492Z,0.80
2019-01-06T02:37:23.556Z,0.75
2019-01-06T02:38:21.297Z,0.90
2019-01-06T02:39:20.373Z,1.10
2019-01-06T02:40:15.568Z,0.90
2019-01-06T02:41:24.281Z,1.20
2019-01-06T02:42:19.673Z,0.95
2019-01-06T02:43:14.974Z,0.80
2019-01-06T02:44:17.312Z,1.00
2019-01-06T02:45:19.395Z,0.90
2019-01-06T02:46:14.486Z,1.12
2019-01-06T02:47:04.043Z,1.80
2019-01-06T02:47:58.968Z,1.12
2019-01-06T02:49:03.785Z,1.10
2019-01-06T02:49:58.945Z,0.80
2019-01-06T02:50:54.443Z,1.10
2019-01-06T02:51:49.845Z,1.07
2019-01-06T02:52:45.344Z,1.00
2019-01-06T02:53:40.542Z,1.00
2019-01-06T02:54:42.447Z,1.05
2019-01-06T02:55:38.564Z,1.17
2019-01-06T02:56:34.009Z,0.80
2019-01-06T02:57:29.691Z,0.90
2019-01-06T02:58:35.785Z,0.90
2019-01-06T02:59:47.549Z,0.90
2019-01-06T03:00:42.761Z,1.00
2019-01-06T03:01:37.726Z,0.80
2019-01-06T03:02:33.023Z,1.00
2019-01-06T03:03:28.011Z,0.80
2019-01-06T03:04:30.272Z,1.37
2019-01-06T03:05:25.163Z,1.00
2019-01-06T03:06:30.185Z,0.88
2019-01-06T03:07:41.267Z,1.40
2019-01-06T03:08:40.547Z,1.00
2019-01-06T03:09:33.992Z,1.05
2019-01-06T03:10:42.108Z,0.70
2019-01-06T03:11:34.833Z,0.95
2019-01-06T03:12:31.532Z,1.15
2019-01-06T03:13:36.904Z,0.70
2019-01-06T03:14:24.103Z,1.20
2019-01-06T03:15:19.234Z,1.37
2019-01-06T03:16:08.138Z,1.10
2019-01-06T03:16:59.946Z,1.00
2019-01-06T03:17:56.476Z,0.90
2019-01-06T03:18:59.046Z,1.10
2019-01-06T03:20:14.118Z,1.35
2019-01-06T03:21:09.096Z,0.80
2019-01-06T03:22:04.199Z,1.22
2019-01-06T03:23:09.733Z,1.00
2019-01-06T03:24:14.040Z,1.00
2019-01-06T03:25:25.392Z,0.90
2019-01-06T03:26:25.117Z,0.85
2019-01-06T03:27:24.228Z,0.90
2019-01-06T03:28:12.512Z,1.00
2019-01-06T03:29:17.760Z,0.95
2019-01-06T03:30:26.371Z,1.00
2019-01-06T03:31:28.525Z,0.80
2019-01-06T03:32:30.669Z,1.05
2019-01-06T03:33:33.970Z,0.78
2019-01-06T03:34:33.059Z,0.85
2019-01-06T03:35:38.054Z,0.80
2019-01-06T03:36:33.269Z,0.82
2019-01-06T03:37:21.202Z,1.25
2019-01-06T03:38:28.278Z,0.80
2019-01-06T03:39:31.857Z,0.88
2019-01-06T03:40:27.061Z,0.95
2019-01-06T03:41:16.812Z,0.90
2019-01-06T03:42:12.530Z,0.80
2019-01-06T03:43:20.756Z,0.85
2019-01-06T03:44:15.822Z,1.12
2019-01-06T03:45:08.652Z,1.00
2019-01-06T03:46:04.460Z,0.70
2019-01-06T03:47:00.824Z,0.80
2019-01-06T03:47:56.180Z,0.90
2019-01-06T03:48:51.476Z,0.85
2019-01-06T03:49:46.878Z,0.70
2019-01-06T03:50:39.817Z,1.10
2019-01-06T03:51:39.008Z,0.80
2019-01-06T03:52:35.221Z,1.00
2019-01-06T03:53:31.265Z,0.72
2019-01-06T03:54:35.138Z,0.90
2019-01-06T03:55:31.645Z,0.90
2019-01-06T03:56:34.739Z,0.85
2019-01-06T03:57:30.982Z,0.90
2019-01-06T03:58:19.568Z,0.70
2019-01-06T03:59:36.700Z,0.80
2019-01-06T04:00:31.954Z,0.85
2019-01-06T04:01:22.481Z,0.85
2019-01-06T04:02:25.152Z,1.00
2019-01-06T04:03:18.506Z,0.93
2019-01-06T04:04:13.912Z,0.90
2019-01-06T04:05:08.799Z,0.90
2019-01-06T04:06:06.661Z,1.32
2019-01-06T04:07:06.139Z,1.02
2019-01-06T04:08:02.674Z,0.90
2019-01-06T04:08:57.252Z,0.90
2019-01-06T04:09:52.233Z,0.70
2019-01-06T04:10:43.544Z,0.90
2019-01-06T04:11:42.825Z,0.88
2019-01-06T04:12:49.590Z,1.50
2019-01-06T04:13:57.681Z,0.90
2019-01-06T04:14:56.674Z,0.90
2019-01-06T04:15:44.674Z,0.80
2019-01-06T04:16:39.889Z,0.95
2019-01-06T04:17:36.333Z,0.80
2019-01-06T04:18:31.607Z,1.00
2019-01-06T04:19:29.461Z,1.47
2019-01-06T04:20:29.405Z,1.00
2019-01-06T04:21:26.204Z,1.20
2019-01-06T04:22:23.214Z,0.90
2019-01-06T04:23:22.249Z,1.00
2019-01-06T04:24:16.464Z,0.80
2019-01-06T04:25:11.278Z,0.80
2019-01-06T04:26:06.369Z,0.82
2019-01-06T04:27:12.110Z,0.90
2019-01-06T04:28:07.737Z,1.10
2019-01-06T04:29:07.416Z,0.80
2019-01-06T04:30:18.600Z,0.95
2019-01-06T04:31:13.878Z,1.02
2019-01-06T04:32:04.056Z,1.10
2019-01-06T04:32:56.898Z,0.75
2019-01-06T04:34:00.295Z,0.80
2019-01-06T04:34:55.388Z,0.65
2019-01-06T04:36:04.121Z,1.10
2019-01-06T04:37:01.017Z,1.25
2019-01-06T04:37:56.048Z,0.82
2019-01-06T04:39:01.749Z,0.95
2019-01-06T04:39:58.272Z,0.93
2019-01-06T04:40:54.800Z,0.90
2019-01-06T04:42:00.132Z,0.80
2019-01-06T04:42:50.831Z,1.00
2019-01-06T04:43:45.706Z,1.10
2019-01-06T04:44:35.682Z,0.75
2019-01-06T04:45:38.032Z,0.93
2019-01-06T04:46:23.508Z,0.70
2019-01-06T04:47:18.289Z,0.90
2019-01-06T04:48:14.012Z,0.70
2019-01-06T04:49:09.988Z,0.80
2019-01-06T04:50:09.301Z,1.10
2019-01-06T04:50:58.981Z,1.05
2019-01-06T04:51:55.808Z,1.25
2019-01-06T04:52:55.496Z,0.90
2019-01-06T04:53:52.255Z,0.95
2019-01-06T04:54:52.137Z,0.90
2019-01-06T04:55:48.861Z,1.00
2019-01-06T04:56:43.719Z,1.70
2019-01-06T04:57:49.489Z,0.70
2019-01-06T04:58:40.905Z,1.05
2019-01-06T04:59:43.361Z,1.00
2019-01-06T05:00:38.428Z,0.85
2019-01-06T05:01:42.258Z,0.95
2019-01-06T05:02:43.850Z,0.88
2019-01-06T05:03:41.213Z,0.85
2019-01-06T05:04:37.725Z,0.90
2019-01-06T05:05:46.065Z,0.90
2019-01-06T05:06:41.001Z,0.82
2019-01-06T05:07:34.913Z,0.85
2019-01-06T05:08:29.702Z,0.80
2019-01-06T05:09:34.007Z,0.98
2019-01-06T05:10:29.591Z,0.85
2019-01-06T05:11:28.696Z,0.70
2019-01-06T05:12:34.338Z,1.10
2019-01-06T05:13:21.222Z,0.98
2019-01-06T05:14:16.636Z,0.60
2019-01-06T05:15:19.023Z,0.80
2019-01-06T05:16:24.738Z,1.10
2019-01-06T05:17:29.963Z,0.80
2019-01-06T05:18:38.571Z,0.90
2019-01-06T05:19:34.496Z,0.90
2019-01-06T05:20:35.618Z,1.20
2019-01-06T05:21:42.995Z,0.90
2019-01-06T05:22:42.496Z,1.00
2019-01-06T05:23:43.126Z,1.05
2019-01-06T05:24:47.934Z,1.02
2019-01-06T05:25:42.619Z,1.07
2019-01-06T05:26:39.441Z,0.70
2019-01-06T05:27:51.383Z,0.80
2019-01-06T05:28:46.745Z,0.80
2019-01-06T05:29:42.851Z,0.80
2019-01-06T05:30:40.297Z,0.90
2019-01-06T05:31:35.296Z,0.93
2019-01-06T05:32:34.492Z,0.88
2019-01-06T05:33:36.223Z,0.85
2019-01-06T05:34:31.437Z,0.93
2019-01-06T05:35:36.365Z,0.80
2019-01-06T05:36:35.343Z,0.80
2019-01-06T05:37:47.099Z,0.60
2019-01-06T05:38:42.393Z,0.80
2019-01-06T05:39:38.001Z,1.00
2019-01-06T05:40:37.395Z,1.00
2019-01-06T05:41:32.693Z,0.75
2019-01-06T05:42:37.096Z,0.80
2019-01-06T05:43:48.834Z,0.93
2019-01-06T05:44:54.942Z,0.80
2019-01-06T05:45:51.880Z,0.80
2019-01-06T05:46:46.917Z,0.80
2019-01-06T05:47:42.151Z,0.95
2019-01-06T05:48:37.307Z,0.98
2019-01-06T05:49:36.438Z,0.80
2019-01-06T05:50:51.192Z,1.10
2019-01-06T05:51:59.480Z,1.17
2019-01-06T05:52:59.106Z,0.70
2019-01-06T05:53:53.987Z,0.80
2019-01-06T05:54:53.233Z,1.05
2019-01-06T05:55:38.432Z,0.80
2019-01-06T05:56:36.683Z,0.80
2019-01-06T05:57:40.685Z,0.93
2019-01-06T05:58:40.077Z,1.10
2019-01-06T05:59:29.423Z,0.93
2019-01-06T06:00:37.827Z,1.00
2019-01-06T06:01:33.063Z,0.70
2019-01-06T06:02:34.181Z,0.72
2019-01-06T06:03:21.771Z,0.75
2019-01-06T06:04:20.262Z,0.90
2019-01-06T06:05:26.084Z,0.98
2019-01-06T06:06:22.530Z,1.30
2019-01-06T06:07:17.827Z,1.07
2019-01-06T06:08:20.607Z,0.95
2019-01-06T06:09:19.679Z,1.20
2019-01-06T06:10:11.085Z,1.40
2019-01-06T06:11:09.250Z,1.00
2019-01-06T06:12:07.432Z,1.70
2019-01-06T06:13:09.881Z,1.77
2019-01-06T06:14:05.591Z,1.20
2019-01-06T06:15:06.526Z,1.10
2019-01-06T06:16:15.222Z,1.10
2019-01-06T06:17:36.361Z,1.27
2019-01-06T06:18:34.293Z,1.40
2019-01-06T06:19:52.214Z,2.12
2019-01-06T06:20:51.823Z,1.00
2019-01-06T06:21:47.108Z,1.35
2019-01-06T06:22:46.295Z,1.27
2019-01-06T06:23:54.601Z,1.70
2019-01-06T06:25:03.346Z,0.85
2019-01-06T06:25:59.115Z,0.93
2019-01-06T06:27:13.819Z,0.78
2019-01-06T06:28:09.399Z,1.00
2019-01-06T06:29:05.297Z,1.20
2019-01-06T06:30:12.140Z,1.15
2019-01-06T06:31:07.039Z,1.60
2019-01-06T06:32:05.908Z,1.22
2019-01-06T06:33:02.647Z,1.20
2019-01-06T06:33:52.442Z,1.25
2019-01-06T06:35:07.480Z,1.35
2019-01-06T06:36:04.128Z,1.10
2019-01-06T06:37:03.393Z,1.07
2019-01-06T06:38:02.315Z,2.10
2019-01-06T06:38:53.801Z,1.02
2019-01-06T06:39:51.734Z,1.20
2019-01-06T06:40:46.941Z,1.05
2019-01-06T06:41:34.136Z,1.10
2019-01-06T06:42:23.870Z,1.32
2019-01-06T06:43:30.149Z,0.90
2019-01-06T06:44:26.527Z,1.17
2019-01-06T06:45:31.291Z,1.10
2019-01-06T06:46:24.745Z,0.90
2019-01-06T06:47:13.982Z,1.10
2019-01-06T06:48:10.433Z,1.20
2019-01-06T06:49:12.891Z,0.90
2019-01-06T06:50:27.699Z,1.20
2019-01-06T06:51:23.047Z,1.07
2019-01-06T06:52:18.755Z,1.30
2019-01-06T06:53:11.075Z,0.80
2019-01-06T06:54:05.855Z,0.90
2019-01-06T06:55:02.901Z,1.00
2019-01-06T06:55:58.289Z,0.90
2019-01-06T06:57:05.313Z,0.70
2019-01-06T06:58:38.043Z,1.20
2019-01-06T06:59:33.451Z,0.82
2019-01-06T07:00:49.639Z,0.93
2019-01-06T07:02:46.975Z,1.45
2019-01-06T07:03:50.863Z,0.78
2019-01-06T07:04:48.452Z,0.78
2019-01-06T07:05:33.535Z,0.75
2019-01-06T07:06:24.039Z,0.90
2019-01-06T07:07:19.063Z,1.52
2019-01-06T07:08:15.575Z,1.10
2019-01-06T07:09:11.383Z,1.20
2019-01-06T07:10:03.814Z,0.93
2019-01-06T07:10:59.382Z,1.00
2019-01-06T07:12:14.071Z,1.00
2019-01-06T07:13:09.361Z,1.40
2019-01-06T07:14:15.109Z,1.07
2019-01-06T07:15:04.678Z,1.10
2019-01-06T07:16:00.783Z,0.80
2019-01-06T07:17:41.650Z,0.90
2019-01-06T07:18:43.503Z,1.60
2019-01-06T07:19:42.130Z,1.30
2019-01-06T07:20:46.795Z,1.10
2019-01-06T07:21:49.353Z,1.60
2019-01-06T07:22:54.073Z,1.20
2019-01-06T07:23:59.607Z,0.90
2019-01-06T07:25:14.667Z,0.98
2019-01-06T07:26:09.667Z,1.30
2019-01-06T07:27:22.402Z,1.32
2019-01-06T07:28:28.708Z,1.00
2019-01-06T07:29:25.140Z,1.07
2019-01-06T07:30:22.218Z,1.15
2019-01-06T07:31:21.985Z,1.20
2019-01-06T07:32:21.298Z,1.80
2019-01-06T07:33:24.144Z,0.88
2019-01-06T07:34:26.021Z,1.30
2019-01-06T07:35:21.404Z,1.05
2019-01-06T07:36:13.110Z,1.70
2019-01-06T07:37:24.996Z,1.12
2019-01-06T07:38:12.412Z,1.22
2019-01-06T07:39:07.498Z,1.25
2019-01-06T07:40:02.696Z,1.40
2019-01-06T07:40:59.342Z,1.85
2019-01-06T07:41:58.944Z,2.98
2019-01-06T07:42:55.852Z,3.10
2019-01-06T07:43:51.860Z,3.47
2019-01-06T07:44:37.992Z,2.17
2019-01-06T07:46:24.239Z,2.35
2019-01-06T07:47:18.612Z,2.67
2019-01-06T07:48:27.124Z,3.40
2019-01-06T07:49:22.315Z,3.50
2019-01-06T07:50:14.435Z,3.42
2019-01-06T07:51:19.978Z,3.20
2019-01-06T07:52:08.693Z,3.58
2019-01-06T07:53:08.223Z,3.30
2019-01-06T07:54:02.832Z,3.98
2019-01-06T07:55:17.230Z,4.42
2019-01-06T07:56:12.570Z,4.87
2019-01-06T07:57:19.709Z,4.37
2019-01-06T07:58:19.240Z,3.85
2019-01-06T07:59:08.657Z,3.60
2019-01-06T08:00:20.023Z,3.50
2019-01-06T08:01:21.162Z,2.85
2019-01-06T08:02:21.273Z,2.45
2019-01-06T08:03:21.402Z,2.20
2019-01-06T08:04:22.820Z,3.47
2019-01-06T08:05:17.796Z,4.45
2019-01-06T08:06:13.025Z,5.45
2019-01-06T08:07:08.507Z,5.03
2019-01-06T08:07:56.324Z,2.00
2019-01-06T08:09:05.558Z,2.20
2019-01-06T08:10:03.928Z,3.75
2019-01-06T08:11:05.984Z,4.65
2019-01-06T08:12:05.066Z,2.90
2019-01-06T08:13:01.490Z,2.20
2019-01-06T08:13:56.520Z,2.87
2019-01-06T08:14:59.284Z,2.50
2019-01-06T08:16:05.092Z,3.10
2019-01-06T08:17:04.680Z,2.30
2019-01-06T08:18:10.088Z,3.40
2019-01-06T08:19:04.089Z,3.80
2019-01-06T08:20:08.924Z,3.50
2019-01-06T08:21:03.382Z,3.12
2019-01-06T08:22:09.840Z,2.37
2019-01-06T08:23:06.568Z,3.90
2019-01-06T08:24:01.968Z,6.05
2019-01-06T08:24:57.212Z,4.22
2019-01-06T08:25:54.023Z,2.42
2019-01-06T08:26:49.861Z,2.20
2019-01-06T08:27:43.460Z,1.40
2019-01-06T08:28:38.840Z,1.75
2019-01-06T08:29:36.205Z,4.40
2019-01-06T08:30:31.813Z,3.25
2019-01-06T08:31:30.794Z,18.05
2019-01-06T08:32:15.846Z,4.85
2019-01-06T08:33:27.366Z,9.68
2019-01-06T08:34:39.120Z,4.80
2019-01-06T08:35:45.668Z,2.80
2019-01-06T08:36:40.474Z,7.50
2019-01-06T08:37:35.868Z,6.10
2019-01-06T08:38:31.406Z,4.90
2019-01-06T08:39:28.300Z,3.37
2019-01-06T08:40:23.458Z,2.15
2019-01-06T08:41:15.570Z,1.80
2019-01-06T08:42:18.795Z,2.50
2019-01-06T08:43:21.260Z,1.87
2019-01-06T08:44:16.801Z,1.45
2019-01-06T08:45:11.778Z,1.40
2019-01-06T08:46:07.256Z,1.57
2019-01-06T08:47:21.684Z,1.90
2019-01-06T08:48:16.497Z,2.40
2019-01-06T08:49:20.264Z,2.20
2019-01-06T08:50:26.668Z,1.85
2019-01-06T08:51:32.195Z,3.35
2019-01-06T08:52:40.261Z,1.72
2019-01-06T08:53:39.662Z,1.50
2019-01-06T08:54:30.265Z,1.67
2019-01-06T08:55:29.840Z,1.35
2019-01-06T08:56:41.828Z,1.20
2019-01-06T08:57:53.407Z,1.60
2019-01-06T08:58:49.503Z,1.55
2019-01-06T08:59:51.525Z,1.50
2019-01-06T09:00:54.134Z,1.60
2019-01-06T09:01:56.744Z,1.60
2019-01-06T09:02:52.004Z,1.50
2019-01-06T09:03:57.922Z,1.75
2019-01-06T09:04:52.735Z,1.10
2019-01-06T09:05:48.166Z,1.87
2019-01-06T09:06:43.335Z,1.62
2019-01-06T09:07:38.830Z,1.60
2019-01-06T09:08:35.360Z,2.40
2019-01-06T09:09:30.222Z,1.50
2019-01-06T09:10:24.596Z,1.40
2019-01-06T09:11:27.488Z,1.72
2019-01-06T09:12:22.980Z,1.70
2019-01-06T09:13:15.604Z,1.30
2019-01-06T09:14:17.592Z,1.22
2019-01-06T09:15:19.734Z,1.67
2019-01-06T09:16:34.713Z,1.50
2019-01-06T09:17:33.878Z,2.27
2019-01-06T09:18:40.028Z,1.47
2019-01-06T09:19:50.493Z,1.45
2019-01-06T09:20:58.735Z,1.25
2019-01-06T09:21:53.672Z,1.10
2019-01-06T09:22:48.840Z,1.57
2019-01-06T09:23:48.273Z,3.15
2019-01-06T09:25:00.754Z,4.10
2019-01-06T09:25:59.725Z,2.75
2019-01-06T09:27:14.491Z,7.47
2019-01-06T09:28:09.606Z,3.20
2019-01-06T09:29:04.642Z,4.75
2019-01-06T09:30:01.521Z,1.55
2019-01-06T09:30:57.872Z,2.10
2019-01-06T09:32:02.263Z,1.80
2019-01-06T09:33:00.211Z,2.40
2019-01-06T09:34:02.588Z,1.80
2019-01-06T09:35:17.205Z,2.47
2019-01-06T09:36:12.657Z,2.00
2019-01-06T09:37:21.946Z,2.02
2019-01-06T09:38:17.352Z,1.00
2019-01-06T09:39:19.708Z,2.22
2019-01-06T09:40:22.171Z,1.67
2019-01-06T09:41:21.260Z,1.97
2019-01-06T09:42:32.453Z,1.80
2019-01-06T09:43:31.481Z,2.10
2019-01-06T09:44:27.208Z,1.95
2019-01-06T09:45:36.030Z,1.95
2019-01-06T09:46:32.452Z,1.37
2019-01-06T09:47:28.248Z,1.25
2019-01-06T09:48:32.672Z,1.05
2019-01-06T09:49:41.501Z,0.80
2019-01-06T09:50:44.594Z,0.93
2019-01-06T09:51:49.512Z,1.07
2019-01-06T09:52:48.877Z,2.22
2019-01-06T09:53:43.692Z,4.03
2019-01-06T09:54:38.065Z,2.62
2019-01-06T09:55:44.997Z,2.95
2019-01-06T09:56:41.624Z,2.92
2019-01-06T09:57:31.084Z,2.92
2019-01-06T09:58:26.185Z,2.30
2019-01-06T09:59:23.641Z,2.37
2019-01-06T10:00:18.945Z,1.10
2019-01-06T10:01:18.471Z,1.42
2019-01-06T10:02:13.535Z,1.30
2019-01-06T10:03:10.028Z,1.85
2019-01-06T10:04:15.380Z,1.65
2019-01-06T10:05:10.756Z,1.65
2019-01-06T10:06:08.321Z,1.10
2019-01-06T10:07:22.508Z,1.40
2019-01-06T10:08:27.240Z,1.42
2019-01-06T10:09:35.169Z,2.45
2019-01-06T10:10:41.225Z,3.12
2019-01-06T10:11:38.111Z,4.78
2019-01-06T10:12:35.186Z,3.52
2019-01-06T10:13:30.389Z,3.02
2019-01-06T10:14:29.039Z,1.87
2019-01-06T10:15:25.805Z,1.65
2019-01-06T10:16:25.282Z,0.90
2019-01-06T10:17:20.579Z,2.05
2019-01-06T10:18:14.155Z,2.27
2019-01-06T10:19:09.028Z,1.62
2019-01-06T10:20:08.517Z,1.10
2019-01-06T10:21:16.680Z,1.15
2019-01-06T10:22:06.397Z,1.40
2019-01-06T10:23:19.143Z,1.10
2019-01-06T10:24:27.407Z,1.00
2019-01-06T10:25:31.396Z,1.30
2019-01-06T10:26:23.210Z,2.45
2019-01-06T10:27:21.369Z,1.20
2019-01-06T10:28:09.327Z,1.22
2019-01-06T10:28:59.851Z,1.00
2019-01-06T10:30:04.747Z,1.20
2019-01-06T10:30:59.989Z,1.15
2019-01-06T10:32:06.433Z,1.37
2019-01-06T10:33:06.681Z,1.02
2019-01-06T10:34:08.928Z,0.82
2019-01-06T10:35:08.317Z,0.95
2019-01-06T10:36:09.839Z,1.02
2019-01-06T10:37:07.177Z,1.50
2019-01-06T10:38:12.433Z,1.50
2019-01-06T10:39:08.902Z,1.37
2019-01-06T10:40:04.249Z,1.90
2019-01-06T10:41:00.977Z,1.70
2019-01-06T10:41:55.501Z,1.40
2019-01-06T10:42:50.649Z,1.30
2019-01-06T10:43:49.434Z,1.45
2019-01-06T10:44:54.873Z,1.17
2019-01-06T10:45:54.153Z,1.20
2019-01-06T10:46:58.259Z,1.52
2019-01-06T10:47:53.763Z,1.80
2019-01-06T10:48:57.676Z,1.40
2019-01-06T10:50:09.654Z,1.62
2019-01-06T10:51:12.210Z,1.27
2019-01-06T10:52:05.255Z,2.33
2019-01-06T10:53:04.334Z,2.98
2019-01-06T10:54:01.277Z,1.30
2019-01-06T10:55:03.837Z,1.30
2019-01-06T10:56:00.778Z,1.20
2019-01-06T10:57:03.034Z,1.80
2019-01-06T10:57:59.553Z,1.10
2019-01-06T10:58:52.527Z,1.37
2019-01-06T10:59:55.065Z,1.70
2019-01-06T11:01:06.317Z,1.70
2019-01-06T11:02:01.431Z,1.60
2019-01-06T11:02:56.935Z,1.50
2019-01-06T11:03:56.013Z,1.00
2019-01-06T11:05:01.547Z,1.65
2019-01-06T11:05:58.387Z,2.87
2019-01-06T11:06:57.273Z,5.65
2019-01-06T11:08:05.978Z,15.13
2019-01-06T11:09:02.906Z,5.65
2019-01-06T11:09:59.535Z,2.45
2019-01-06T11:10:57.893Z,2.60
2019-01-06T11:12:12.865Z,2.02
2019-01-06T11:13:08.673Z,1.57
2019-01-06T11:14:03.307Z,2.05
2019-01-06T11:14:57.831Z,1.90
2019-01-06T11:15:51.075Z,1.82
2019-01-06T11:16:45.963Z,1.65
2019-01-06T11:17:40.750Z,1.35
2019-01-06T11:18:37.997Z,1.52
2019-01-06T11:19:49.480Z,1.62
2019-01-06T11:20:39.653Z,1.95
2019-01-06T11:21:35.135Z,1.47
2019-01-06T11:22:37.941Z,2.70
2019-01-06T11:23:40.279Z,2.10
2019-01-06T11:24:30.450Z,1.60
2019-01-06T11:25:25.857Z,2.37
2019-01-06T11:26:19.715Z,1.10
2019-01-06T11:27:31.597Z,1.80
2019-01-06T11:28:46.568Z,2.85
2019-01-06T11:29:41.459Z,2.02
2019-01-06T11:30:46.571Z,1.98
2019-01-06T11:31:47.198Z,2.20
2019-01-06T11:32:45.767Z,2.62
2019-01-06T11:33:41.291Z,2.92
2019-01-06T11:34:38.306Z,2.02
2019-01-06T11:35:24.587Z,1.60
2019-01-06T11:36:33.920Z,1.37
2019-01-06T11:37:30.154Z,1.10
2019-01-06T11:38:36.804Z,1.02
2019-01-06T11:39:35.823Z,1.50
2019-01-06T11:40:37.956Z,1.15
2019-01-06T11:41:41.385Z,0.95
2019-01-06T11:42:37.895Z,1.07
2019-01-06T11:43:29.159Z,1.25
2019-01-06T11:44:22.513Z,1.00
2019-01-06T11:45:17.265Z,1.10
2019-01-06T11:46:28.352Z,1.00
2019-01-06T11:47:30.800Z,1.25
2019-01-06T11:48:44.751Z,1.10
2019-01-06T11:49:49.769Z,1.35
2019-01-06T11:51:01.561Z,1.05
2019-01-06T11:51:51.015Z,1.10
2019-01-06T11:52:46.107Z,0.90
2019-01-06T11:53:45.605Z,1.20
2019-01-06T11:54:59.439Z,0.88
2019-01-06T11:55:51.148Z,1.00
2019-01-06T11:56:56.893Z,0.80
2019-01-06T11:57:56.293Z,0.93
2019-01-06T11:59:00.401Z,1.10
2019-01-06T11:59:56.256Z,1.30
2019-01-06T12:00:52.464Z,0.88
2019-01-06T12:01:43.831Z,1.25
2019-01-06T12:02:43.010Z,1.00
2019-01-06T12:03:38.405Z,1.52
2019-01-06T12:04:33.790Z,1.40
2019-01-06T12:05:35.807Z,0.90
2019-01-06T12:06:34.875Z,1.20
2019-01-06T12:07:33.766Z,1.52
2019-01-06T12:08:30.650Z,1.22
2019-01-06T12:09:24.234Z,1.20
2019-01-06T12:10:20.170Z,1.12
2019-01-06T12:11:17.770Z,1.17
2019-01-06T12:12:20.357Z,1.10
2019-01-06T12:13:35.142Z,1.07
2019-01-06T12:14:34.517Z,1.15
2019-01-06T12:15:26.014Z,1.02
2019-01-06T12:16:21.513Z,1.30
2019-01-06T12:17:17.229Z,1.10
2019-01-06T12:18:32.159Z,0.80
2019-01-06T12:19:33.876Z,1.05
2019-01-06T12:20:19.596Z,1.10
2019-01-06T12:21:08.220Z,1.20
2019-01-06T12:22:03.306Z,1.35
2019-01-06T12:23:02.813Z,0.80
2019-01-06T12:23:57.678Z,0.90
2019-01-06T12:25:04.197Z,1.00
2019-01-06T12:25:59.030Z,1.10
2019-01-06T12:27:07.978Z,0.80
2019-01-06T12:28:03.350Z,0.93
2019-01-06T12:28:58.662Z,0.90
2019-01-06T12:29:57.834Z,0.90
2019-01-06T12:30:52.790Z,0.80
2019-01-06T12:32:07.341Z,1.00
2019-01-06T12:33:02.162Z,1.05
2019-01-06T12:34:01.148Z,1.20
2019-01-06T12:34:56.020Z,1.10
2019-01-06T12:35:51.426Z,0.80
2019-01-06T12:36:57.875Z,0.85
2019-01-06T12:38:07.020Z,0.85
2019-01-06T12:39:06.205Z,1.02
2019-01-06T12:40:03.943Z,1.45
2019-01-06T12:41:00.479Z,0.80
2019-01-06T12:41:55.880Z,1.00
2019-01-06T12:42:50.606Z,0.80
2019-01-06T12:43:45.741Z,0.80
2019-01-06T12:44:44.641Z,0.88
2019-01-06T12:45:36.430Z,1.57
2019-01-06T12:46:45.149Z,1.02
2019-01-06T12:47:59.612Z,1.00
2019-01-06T12:48:54.449Z,1.00
2019-01-06T12:49:49.669Z,1.10
2019-01-06T12:50:40.357Z,1.40
2019-01-06T12:51:43.473Z,1.52
2019-01-06T12:52:38.021Z,0.90
2019-01-06T12:53:45.688Z,1.17
2019-01-06T12:54:34.139Z,2.20
2019-01-06T12:55:38.980Z,1.20
2019-01-06T12:56:38.102Z,1.22
2019-01-06T12:57:33.330Z,1.05
2019-01-06T12:58:36.318Z,0.70
2019-01-06T12:59:31.480Z,1.25
2019-01-06T13:00:36.678Z,1.90
2019-01-06T13:01:32.072Z,0.90
2019-01-06T13:02:37.818Z,1.60
2019-01-06T13:03:33.191Z,2.30
2019-01-06T13:04:29.142Z,1.35
2019-01-06T13:05:26.167Z,1.35
2019-01-06T13:06:37.503Z,1.00
2019-01-06T13:07:29.412Z,1.57
2019-01-06T13:08:24.195Z,1.05
2019-01-06T13:09:19.156Z,0.88
2019-01-06T13:10:32.848Z,0.70
2019-01-06T13:11:35.988Z,1.32
2019-01-06T13:12:36.328Z,0.90